Terminal Aerodrome Forecast
Issued by NWS

Home | Current Version | Previous Version | Graphics & Text | Print | Product List | Glossary On
Versions: 1 2 3 4 5 6 7 8 9 10 11 12 13 14 15 16 17 18 19
651
FTUS43 KLSX 131121
TAFSUS
TAF
KSUS 131121Z 1312/1412 20008KT P6SM SKC WS020/23035KT
     FM131500 22013G22KT P6SM FEW250
     FM131800 27017G30KT P6SM SCT200
     FM132000 30017G27KT P6SM FEW045
     FM140500 32010G19KT P6SM BKN025
     FM140900 33008KT P6SM SCT025=

USA.gov is the U.S. government's official web portal to all federal, state and local government web resources and services.